sensor_id;sensor_type;location;lat;lon;timestamp;temperature;humidity
19435;DHT22;9853;50.848;4.108;2022-10-16T00:01:42;14.60;99.90
19435;DHT22;9853;50.848;4.108;2022-10-16T00:03:44;14.60;99.90
19435;DHT22;9853;50.848;4.108;2022-10-16T00:05:45;14.60;99.90
19435;DHT22;9853;50.848;4.108;2022-10-16T00:07:46;14.60;99.90
19435;DHT22;9853;50.848;4.108;2022-10-16T00:09:46;14.60;99.90
19435;DHT22;9853;50.848;4.108;2022-10-16T00:11:47;14.60;99.90
19435;DHT22;9853;50.848;4.108;2022-10-16T00:13:49;14.70;99.90
19435;DHT22;9853;50.848;4.108;2022-10-16T00:15:50;14.60;99.90
19435;DHT22;9853;50.848;4.108;2022-10-16T00:17:51;14.50;99.90
19435;DHT22;9853;50.848;4.108;2022-10-16T00:19:52;14.50;99.90
19435;DHT22;9853;50.848;4.108;2022-10-16T00:21:52;14.60;99.90
19435;DHT22;9853;50.848;4.108;2022-10-16T00:24:02;14.50;99.90
19435;DHT22;9853;50.848;4.108;2022-10-16T00:26:05;14.50;99.90
19435;DHT22;9853;50.848;4.108;2022-10-16T00:28:06;14.60;99.90
19435;DHT22;9853;50.848;4.108;2022-10-16T00:30:07;14.60;99.90
19435;DHT22;9853;50.848;4.108;2022-10-16T00:32:09;14.50;99.90
19435;DHT22;9853;50.848;4.108;2022-10-16T00:34:09;14.60;99.90
19435;DHT22;9853;50.848;4.108;2022-10-16T00:36:13;14.70;99.90
19435;DHT22;9853;50.848;4.108;2022-10-16T00:38:14;14.70;99.90
19435;DHT22;9853;50.848;4.108;2022-10-16T00:40:15;14.60;99.90
19435;DHT22;9853;50.848;4.108;2022-10-16T00:42:18;14.70;99.90
19435;DHT22;9853;50.848;4.108;2022-10-16T00:46:53;14.70;99.90
19435;DHT22;9853;50.848;4.108;2022-10-16T00:48:59;14.70;99.90
19435;DHT22;9853;50.848;4.108;2022-10-16T00:51:01;14.80;99.90
19435;DHT22;9853;50.848;4.108;2022-10-16T00:53:02;14.70;99.90
19435;DHT22;9853;50.848;4.108;2022-10-16T00:55:04;14.60;99.90
19435;DHT22;9853;50.848;4.108;2022-10-16T00:57:07;14.60;99.90
19435;DHT22;9853;50.848;4.108;2022-10-16T00:59:15;14.60;99.90
19435;DHT22;9853;50.848;4.108;2022-10-16T01:01:16;14.50;99.90
19435;DHT22;9853;50.848;4.108;2022-10-16T01:03:29;14.50;99.90
19435;DHT22;9853;50.848;4.108;2022-10-16T01:05:45;14.40;99.90
19435;DHT22;9853;50.848;4.108;2022-10-16T01:08:08;14.40;99.90
19435;DHT22;9853;50.848;4.108;2022-10-16T01:13:09;14.40;99.90
19435;DHT22;9853;50.848;4.108;2022-10-16T01:20:06;14.30;99.90
19435;DHT22;9853;50.848;4.108;2022-10-16T01:22:09;14.30;99.90
19435;DHT22;9853;50.848;4.108;2022-10-16T01:24:27;14.30;99.90
19435;DHT22;9853;50.848;4.108;2022-10-16T01:27:10;14.30;99.90
19435;DHT22;9853;50.848;4.108;2022-10-16T01:31:31;14.40;99.90
19435;DHT22;9853;50.848;4.108;2022-10-16T01:33:46;14.40;99.90
19435;DHT22;9853;50.848;4.108;2022-10-16T01:35:53;14.40;99.90
19435;DHT22;9853;50.848;4.108;2022-10-16T01:38:10;14.30;99.90
19435;DHT22;9853;50.848;4.108;2022-10-16T01:40:15;14.20;99.90
19435;DHT22;9853;50.848;4.108;2022-10-16T01:42:22;14.20;99.90
19435;DHT22;9853;50.848;4.108;2022-10-16T01:44:30;14.20;99.90
19435;DHT22;9853;50.848;4.108;2022-10-16T01:46:32;14.30;99.90
19435;DHT22;9853;50.848;4.108;2022-10-16T01:48:34;14.30;99.90
19435;DHT22;9853;50.848;4.108;2022-10-16T01:50:38;14.30;99.90
19435;DHT22;9853;50.848;4.108;2022-10-16T01:52:45;14.20;99.90
19435;DHT22;9853;50.848;4.108;2022-10-16T01:54:47;14.30;99.90
19435;DHT22;9853;50.848;4.108;2022-10-16T01:56:50;14.30;99.90
19435;DHT22;9853;50.848;4.108;2022-10-16T01:59:12;14.20;99.90
19435;DHT22;9853;50.848;4.108;2022-10-16T02:01:17;14.20;99.90
19435;DHT22;9853;50.848;4.108;2022-10-16T02:03:19;14.10;99.90
19435;DHT22;9853;50.848;4.108;2022-10-16T02:05:23;14.10;99.90
19435;DHT22;9853;50.848;4.108;2022-10-16T02:07:25;14.20;99.90
19435;DHT22;9853;50.848;4.108;2022-10-16T02:09:26;14.20;99.90
19435;DHT22;9853;50.848;4.108;2022-10-16T02:11:27;14.10;99.90
19435;DHT22;9853;50.848;4.108;2022-10-16T02:13:51;14.00;99.90
19435;DHT22;9853;50.848;4.108;2022-10-16T02:15:53;14.10;99.90
19435;DHT22;9853;50.848;4.108;2022-10-16T02:17:55;14.10;99.90
19435;DHT22;9853;50.848;4.108;2022-10-16T02:19:57;14.10;99.90
19435;DHT22;9853;50.848;4.108;2022-10-16T02:22:03;14.20;99.90
19435;DHT22;9853;50.848;4.108;2022-10-16T02:26:18;14.10;99.90
19435;DHT22;9853;50.848;4.108;2022-10-16T02:28:28;14.10;99.90
19435;DHT22;9853;50.848;4.108;2022-10-16T02:31:02;14.10;99.90
19435;DHT22;9853;50.848;4.108;2022-10-16T02:33:06;14.20;99.90
19435;DHT22;9853;50.848;4.108;2022-10-16T02:35:08;14.20;99.90
19435;DHT22;9853;50.848;4.108;2022-10-16T02:37:09;14.20;99.90
19435;DHT22;9853;50.848;4.108;2022-10-16T02:39:11;14.20;99.90
19435;DHT22;9853;50.848;4.108;2022-10-16T02:41:12;14.20;99.90
19435;DHT22;9853;50.848;4.108;2022-10-16T02:43:13;14.10;99.90
19435;DHT22;9853;50.848;4.108;2022-10-16T02:45:13;14.10;99.90
19435;DHT22;9853;50.848;4.108;2022-10-16T02:47:14;14.20;99.90
19435;DHT22;9853;50.848;4.108;2022-10-16T02:49:15;14.20;99.90
19435;DHT22;9853;50.848;4.108;2022-10-16T02:51:16;14.20;99.90
19435;DHT22;9853;50.848;4.108;2022-10-16T02:53:16;14.10;99.90
19435;DHT22;9853;50.848;4.108;2022-10-16T02:55:17;14.10;99.90
19435;DHT22;9853;50.848;4.108;2022-10-16T02:57:18;14.10;99.90
19435;DHT22;9853;50.848;4.108;2022-10-16T02:59:19;14.00;99.90
19435;DHT22;9853;50.848;4.108;2022-10-16T03:01:23;14.10;99.90
19435;DHT22;9853;50.848;4.108;2022-10-16T03:03:24;14.00;99.90
19435;DHT22;9853;50.848;4.108;2022-10-16T03:05:24;14.00;99.90
19435;DHT22;9853;50.848;4.108;2022-10-16T03:07:25;14.00;99.90
19435;DHT22;9853;50.848;4.108;2022-10-16T03:09:26;14.00;99.90
19435;DHT22;9853;50.848;4.108;2022-10-16T03:11:27;14.00;99.90
19435;DHT22;9853;50.848;4.108;2022-10-16T03:13:28;14.00;99.90
19435;DHT22;9853;50.848;4.108;2022-10-16T03:15:29;14.00;99.90
19435;DHT22;9853;50.848;4.108;2022-10-16T03:17:31;13.90;99.90
19435;DHT22;9853;50.848;4.108;2022-10-16T03:19:32;14.00;99.90
19435;DHT22;9853;50.848;4.108;2022-10-16T03:21:32;14.00;99.90
19435;DHT22;9853;50.848;4.108;2022-10-16T03:23:33;14.00;99.90
19435;DHT22;9853;50.848;4.108;2022-10-16T03:25:34;14.10;99.90
19435;DHT22;9853;50.848;4.108;2022-10-16T03:27:34;14.10;99.90
19435;DHT22;9853;50.848;4.108;2022-10-16T03:29:35;14.10;99.90
19435;DHT22;9853;50.848;4.108;2022-10-16T03:31:36;14.10;99.90
19435;DHT22;9853;50.848;4.108;2022-10-16T03:33:36;14.10;99.90
19435;DHT22;9853;50.848;4.108;2022-10-16T03:35:37;14.10;99.90
19435;DHT22;9853;50.848;4.108;2022-10-16T03:37:38;14.10;99.90
19435;DHT22;9853;50.848;4.108;2022-10-16T03:39:38;14.00;99.90
19435;DHT22;9853;50.848;4.108;2022-10-16T03:41:39;14.10;99.90
19435;DHT22;9853;50.848;4.108;2022-10-16T03:43:40;14.10;99.90
19435;DHT22;9853;50.848;4.108;2022-10-16T03:45:40;14.10;99.90
19435;DHT22;9853;50.848;4.108;2022-10-16T03:47:41;14.10;99.90
19435;DHT22;9853;50.848;4.108;2022-10-16T03:49:42;14.00;99.90
19435;DHT22;9853;50.848;4.108;2022-10-16T03:51:42;14.10;99.90
19435;DHT22;9853;50.848;4.108;2022-10-16T03:53:43;14.10;99.90
19435;DHT22;9853;50.848;4.108;2022-10-16T03:55:44;14.10;99.90
19435;DHT22;9853;50.848;4.108;2022-10-16T03:57:45;14.00;99.90
19435;DHT22;9853;50.848;4.108;2022-10-16T03:59:45;14.00;99.90
19435;DHT22;9853;50.848;4.108;2022-10-16T04:01:46;14.00;99.90
19435;DHT22;9853;50.848;4.108;2022-10-16T04:03:47;13.90;99.90
19435;DHT22;9853;50.848;4.108;2022-10-16T04:05:47;14.00;99.90
19435;DHT22;9853;50.848;4.108;2022-10-16T04:07:48;14.00;99.90
19435;DHT22;9853;50.848;4.108;2022-10-16T04:09:49;14.00;99.90
19435;DHT22;9853;50.848;4.108;2022-10-16T04:11:52;13.90;99.90
19435;DHT22;9853;50.848;4.108;2022-10-16T04:13:53;13.90;99.90
19435;DHT22;9853;50.848;4.108;2022-10-16T04:15:53;13.90;99.90
19435;DHT22;9853;50.848;4.108;2022-10-16T04:17:54;13.90;99.90
19435;DHT22;9853;50.848;4.108;2022-10-16T04:19:54;13.90;99.90
19435;DHT22;9853;50.848;4.108;2022-10-16T04:21:55;13.90;99.90
19435;DHT22;9853;50.848;4.108;2022-10-16T04:23:56;13.90;99.90
19435;DHT22;9853;50.848;4.108;2022-10-16T04:25:56;13.90;99.90
19435;DHT22;9853;50.848;4.108;2022-10-16T04:27:57;14.00;99.90
19435;DHT22;9853;50.848;4.108;2022-10-16T04:29:59;14.00;99.90
19435;DHT22;9853;50.848;4.108;2022-10-16T04:32:00;13.90;99.90
19435;DHT22;9853;50.848;4.108;2022-10-16T04:34:00;14.00;99.90
19435;DHT22;9853;50.848;4.108;2022-10-16T04:36:02;14.00;99.90
19435;DHT22;9853;50.848;4.108;2022-10-16T04:38:03;14.00;99.90
19435;DHT22;9853;50.848;4.108;2022-10-16T04:40:04;14.00;99.90
19435;DHT22;9853;50.848;4.108;2022-10-16T04:42:05;14.00;99.90
19435;DHT22;9853;50.848;4.108;2022-10-16T04:44:06;14.00;99.90
19435;DHT22;9853;50.848;4.108;2022-10-16T04:46:06;14.00;99.90
19435;DHT22;9853;50.848;4.108;2022-10-16T04:48:07;14.00;99.90
19435;DHT22;9853;50.848;4.108;2022-10-16T04:50:08;14.00;99.90
19435;DHT22;9853;50.848;4.108;2022-10-16T04:52:09;14.00;99.90
19435;DHT22;9853;50.848;4.108;2022-10-16T04:54:10;13.90;99.90
19435;DHT22;9853;50.848;4.108;2022-10-16T04:56:11;13.90;99.90
19435;DHT22;9853;50.848;4.108;2022-10-16T04:58:11;13.90;99.90
19435;DHT22;9853;50.848;4.108;2022-10-16T05:00:12;13.80;99.90
19435;DHT22;9853;50.848;4.108;2022-10-16T05:02:13;13.90;99.90
19435;DHT22;9853;50.848;4.108;2022-10-16T05:04:14;13.90;99.90
19435;DHT22;9853;50.848;4.108;2022-10-16T05:06:15;13.80;99.90
19435;DHT22;9853;50.848;4.108;2022-10-16T05:08:16;13.90;99.90
19435;DHT22;9853;50.848;4.108;2022-10-16T05:10:17;13.90;99.90
19435;DHT22;9853;50.848;4.108;2022-10-16T05:12:18;13.70;99.90
19435;DHT22;9853;50.848;4.108;2022-10-16T05:14:18;13.60;99.90
19435;DHT22;9853;50.848;4.108;2022-10-16T05:16:19;13.60;99.90
19435;DHT22;9853;50.848;4.108;2022-10-16T05:18:20;13.60;99.90
19435;DHT22;9853;50.848;4.108;2022-10-16T05:20:21;13.70;99.90
19435;DHT22;9853;50.848;4.108;2022-10-16T05:22:22;13.70;99.90
19435;DHT22;9853;50.848;4.108;2022-10-16T05:24:22;13.70;99.90
19435;DHT22;9853;50.848;4.108;2022-10-16T05:26:23;13.70;99.90
19435;DHT22;9853;50.848;4.108;2022-10-16T05:28:28;13.70;99.90
19435;DHT22;9853;50.848;4.108;2022-10-16T05:30:29;13.70;99.90
19435;DHT22;9853;50.848;4.108;2022-10-16T05:32:30;13.70;99.90
19435;DHT22;9853;50.848;4.108;2022-10-16T05:34:30;13.70;99.90
19435;DHT22;9853;50.848;4.108;2022-10-16T05:36:31;13.70;99.90
19435;DHT22;9853;50.848;4.108;2022-10-16T05:38:32;13.70;99.90
19435;DHT22;9853;50.848;4.108;2022-10-16T05:40:32;13.60;99.90
19435;DHT22;9853;50.848;4.108;2022-10-16T05:42:33;13.50;99.90
19435;DHT22;9853;50.848;4.108;2022-10-16T05:44:34;13.60;99.90
19435;DHT22;9853;50.848;4.108;2022-10-16T05:46:35;13.50;99.90
19435;DHT22;9853;50.848;4.108;2022-10-16T05:48:35;13.60;99.90
19435;DHT22;9853;50.848;4.108;2022-10-16T05:50:36;13.60;99.90
19435;DHT22;9853;50.848;4.108;2022-10-16T05:52:36;13.60;99.90
19435;DHT22;9853;50.848;4.108;2022-10-16T05:54:37;13.80;99.90
19435;DHT22;9853;50.848;4.108;2022-10-16T05:56:38;13.80;99.90
19435;DHT22;9853;50.848;4.108;2022-10-16T05:58:39;13.80;99.90
19435;DHT22;9853;50.848;4.108;2022-10-16T06:00:44;13.80;99.90
19435;DHT22;9853;50.848;4.108;2022-10-16T06:02:45;13.90;99.90
19435;DHT22;9853;50.848;4.108;2022-10-16T06:04:46;13.80;99.90
19435;DHT22;9853;50.848;4.108;2022-10-16T06:06:47;13.90;99.90
19435;DHT22;9853;50.848;4.108;2022-10-16T06:08:48;14.00;99.90
19435;DHT22;9853;50.848;4.108;2022-10-16T06:11:01;14.00;99.90
19435;DHT22;9853;50.848;4.108;2022-10-16T06:13:02;13.90;99.90
19435;DHT22;9853;50.848;4.108;2022-10-16T06:15:03;14.00;99.90
19435;DHT22;9853;50.848;4.108;2022-10-16T06:17:04;14.10;99.90
19435;DHT22;9853;50.848;4.108;2022-10-16T06:19:05;14.10;99.90
19435;DHT22;9853;50.848;4.108;2022-10-16T06:21:10;14.20;99.90
19435;DHT22;9853;50.848;4.108;2022-10-16T06:23:11;14.20;99.90
19435;DHT22;9853;50.848;4.108;2022-10-16T06:25:12;14.20;99.90
19435;DHT22;9853;50.848;4.108;2022-10-16T06:27:12;14.30;99.90
19435;DHT22;9853;50.848;4.108;2022-10-16T06:29:13;14.40;99.90
19435;DHT22;9853;50.848;4.108;2022-10-16T06:31:15;14.40;99.90
19435;DHT22;9853;50.848;4.108;2022-10-16T06:33:16;14.40;99.90
19435;DHT22;9853;50.848;4.108;2022-10-16T06:35:17;14.40;99.90
19435;DHT22;9853;50.848;4.108;2022-10-16T06:37:17;14.40;99.90
19435;DHT22;9853;50.848;4.108;2022-10-16T06:39:18;14.40;99.90
19435;DHT22;9853;50.848;4.108;2022-10-16T06:41:20;14.40;99.90
19435;DHT22;9853;50.848;4.108;2022-10-16T06:43:21;14.60;99.90
19435;DHT22;9853;50.848;4.108;2022-10-16T06:45:22;14.60;99.90
19435;DHT22;9853;50.848;4.108;2022-10-16T06:47:23;14.60;99.90
19435;DHT22;9853;50.848;4.108;2022-10-16T06:49:24;14.50;99.90
19435;DHT22;9853;50.848;4.108;2022-10-16T06:51:25;14.50;99.90
19435;DHT22;9853;50.848;4.108;2022-10-16T06:53:27;14.50;99.90
19435;DHT22;9853;50.848;4.108;2022-10-16T06:55:29;14.50;99.90
19435;DHT22;9853;50.848;4.108;2022-10-16T06:57:29;14.50;99.90
19435;DHT22;9853;50.848;4.108;2022-10-16T06:59:30;14.50;99.90
19435;DHT22;9853;50.848;4.108;2022-10-16T07:01:32;14.50;99.90
19435;DHT22;9853;50.848;4.108;2022-10-16T07:03:33;14.60;99.90
19435;DHT22;9853;50.848;4.108;2022-10-16T07:05:40;14.70;99.90
19435;DHT22;9853;50.848;4.108;2022-10-16T07:07:41;14.70;99.90
19435;DHT22;9853;50.848;4.108;2022-10-16T07:09:41;14.70;99.90
19435;DHT22;9853;50.848;4.108;2022-10-16T07:11:42;14.60;99.90
19435;DHT22;9853;50.848;4.108;2022-10-16T07:13:44;14.70;99.90
19435;DHT22;9853;50.848;4.108;2022-10-16T07:15:44;14.70;99.90
19435;DHT22;9853;50.848;4.108;2022-10-16T07:17:45;14.80;99.90
19435;DHT22;9853;50.848;4.108;2022-10-16T07:19:46;14.90;99.90
19435;DHT22;9853;50.848;4.108;2022-10-16T07:21:46;15.00;99.90
19435;DHT22;9853;50.848;4.108;2022-10-16T07:23:51;15.10;99.90
19435;DHT22;9853;50.848;4.108;2022-10-16T07:25:54;15.20;99.90
19435;DHT22;9853;50.848;4.108;2022-10-16T07:27:56;15.20;99.90
19435;DHT22;9853;50.848;4.108;2022-10-16T07:29:57;15.30;99.90
19435;DHT22;9853;50.848;4.108;2022-10-16T07:31:57;15.50;99.90
19435;DHT22;9853;50.848;4.108;2022-10-16T07:33:59;15.60;99.90
19435;DHT22;9853;50.848;4.108;2022-10-16T07:36:00;15.80;99.90
19435;DHT22;9853;50.848;4.108;2022-10-16T07:38:02;15.90;99.90
19435;DHT22;9853;50.848;4.108;2022-10-16T07:40:03;15.90;99.90
19435;DHT22;9853;50.848;4.108;2022-10-16T07:42:03;16.00;99.90
19435;DHT22;9853;50.848;4.108;2022-10-16T07:44:04;16.10;99.90
19435;DHT22;9853;50.848;4.108;2022-10-16T07:46:05;16.30;99.90
19435;DHT22;9853;50.848;4.108;2022-10-16T07:48:06;16.60;99.90
19435;DHT22;9853;50.848;4.108;2022-10-16T07:50:07;16.80;99.90
19435;DHT22;9853;50.848;4.108;2022-10-16T07:52:08;17.20;99.90
19435;DHT22;9853;50.848;4.108;2022-10-16T07:54:09;18.00;99.90
19435;DHT22;9853;50.848;4.108;2022-10-16T07:56:10;18.70;99.90
19435;DHT22;9853;50.848;4.108;2022-10-16T07:58:12;19.60;99.90
19435;DHT22;9853;50.848;4.108;2022-10-16T08:00:13;20.50;99.90
19435;DHT22;9853;50.848;4.108;2022-10-16T08:02:14;21.10;99.90
19435;DHT22;9853;50.848;4.108;2022-10-16T08:04:15;21.40;99.90
19435;DHT22;9853;50.848;4.108;2022-10-16T08:06:16;21.40;99.90
19435;DHT22;9853;50.848;4.108;2022-10-16T08:08:18;21.90;99.90
19435;DHT22;9853;50.848;4.108;2022-10-16T08:10:20;22.40;99.90
19435;DHT22;9853;50.848;4.108;2022-10-16T08:12:22;22.60;99.90
19435;DHT22;9853;50.848;4.108;2022-10-16T08:14:22;22.40;99.90
19435;DHT22;9853;50.848;4.108;2022-10-16T08:16:23;22.20;99.90
19435;DHT22;9853;50.848;4.108;2022-10-16T08:18:24;21.70;99.90
19435;DHT22;9853;50.848;4.108;2022-10-16T08:20:25;21.20;99.90
19435;DHT22;9853;50.848;4.108;2022-10-16T08:22:26;21.60;99.90
19435;DHT22;9853;50.848;4.108;2022-10-16T08:24:26;22.10;99.90
19435;DHT22;9853;50.848;4.108;2022-10-16T08:26:28;22.20;99.90
19435;DHT22;9853;50.848;4.108;2022-10-16T08:28:28;21.40;99.90
19435;DHT22;9853;50.848;4.108;2022-10-16T08:30:29;21.60;99.90
19435;DHT22;9853;50.848;4.108;2022-10-16T08:32:30;21.80;99.90
19435;DHT22;9853;50.848;4.108;2022-10-16T08:34:30;21.80;99.90
19435;DHT22;9853;50.848;4.108;2022-10-16T08:36:31;22.00;99.90
19435;DHT22;9853;50.848;4.108;2022-10-16T08:38:32;22.40;99.90
19435;DHT22;9853;50.848;4.108;2022-10-16T08:40:35;22.80;99.90
19435;DHT22;9853;50.848;4.108;2022-10-16T08:42:55;22.80;99.90
19435;DHT22;9853;50.848;4.108;2022-10-16T08:49:20;23.10;99.90
19435;DHT22;9853;50.848;4.108;2022-10-16T08:51:32;23.20;99.90
19435;DHT22;9853;50.848;4.108;2022-10-16T08:53:44;23.30;99.90
19435;DHT22;9853;50.848;4.108;2022-10-16T08:55:52;23.60;99.90
19435;DHT22;9853;50.848;4.108;2022-10-16T08:57:53;23.10;99.90
19435;DHT22;9853;50.848;4.108;2022-10-16T08:59:55;22.80;99.90
19435;DHT22;9853;50.848;4.108;2022-10-16T09:02:00;23.00;99.90
19435;DHT22;9853;50.848;4.108;2022-10-16T09:06:42;22.60;99.90
19435;DHT22;9853;50.848;4.108;2022-10-16T09:11:22;23.10;99.90
19435;DHT22;9853;50.848;4.108;2022-10-16T09:13:28;23.40;99.90
19435;DHT22;9853;50.848;4.108;2022-10-16T09:15:59;22.60;99.90
19435;DHT22;9853;50.848;4.108;2022-10-16T09:20:30;22.70;99.90
19435;DHT22;9853;50.848;4.108;2022-10-16T09:22:32;22.80;99.90
19435;DHT22;9853;50.848;4.108;2022-10-16T09:24:33;23.40;99.90
19435;DHT22;9853;50.848;4.108;2022-10-16T09:26:34;23.10;99.90
19435;DHT22;9853;50.848;4.108;2022-10-16T09:28:35;23.50;99.90
19435;DHT22;9853;50.848;4.108;2022-10-16T09:30:37;23.40;99.90
19435;DHT22;9853;50.848;4.108;2022-10-16T09:32:39;23.40;99.90
19435;DHT22;9853;50.848;4.108;2022-10-16T09:34:54;22.90;99.90
19435;DHT22;9853;50.848;4.108;2022-10-16T09:37:00;22.60;99.90
19435;DHT22;9853;50.848;4.108;2022-10-16T09:39:03;22.00;99.90
19435;DHT22;9853;50.848;4.108;2022-10-16T09:41:19;21.70;99.90
19435;DHT22;9853;50.848;4.108;2022-10-16T09:45:31;20.90;99.90
19435;DHT22;9853;50.848;4.108;2022-10-16T09:47:43;20.80;99.90
19435;DHT22;9853;50.848;4.108;2022-10-16T09:49:56;20.50;99.90
19435;DHT22;9853;50.848;4.108;2022-10-16T09:52:12;20.00;99.90
19435;DHT22;9853;50.848;4.108;2022-10-16T09:54:14;19.90;99.90
19435;DHT22;9853;50.848;4.108;2022-10-16T09:56:32;19.80;99.90
19435;DHT22;9853;50.848;4.108;2022-10-16T09:58:33;19.70;99.90
19435;DHT22;9853;50.848;4.108;2022-10-16T10:00:34;19.60;99.90
19435;DHT22;9853;50.848;4.108;2022-10-16T10:02:36;19.60;99.90
19435;DHT22;9853;50.848;4.108;2022-10-16T10:04:48;19.70;99.90
19435;DHT22;9853;50.848;4.108;2022-10-16T10:06:52;19.40;99.90
19435;DHT22;9853;50.848;4.108;2022-10-16T10:08:58;19.50;99.90
19435;DHT22;9853;50.848;4.108;2022-10-16T10:10:59;19.30;99.90
19435;DHT22;9853;50.848;4.108;2022-10-16T10:13:00;19.20;99.90
19435;DHT22;9853;50.848;4.108;2022-10-16T10:15:07;19.30;99.90
19435;DHT22;9853;50.848;4.108;2022-10-16T10:17:31;19.20;99.90
19435;DHT22;9853;50.848;4.108;2022-10-16T10:19:46;19.40;99.90
19435;DHT22;9853;50.848;4.108;2022-10-16T10:21:47;19.50;99.90
19435;DHT22;9853;50.848;4.108;2022-10-16T10:23:55;19.60;99.90
19435;DHT22;9853;50.848;4.108;2022-10-16T10:26:14;19.30;99.90
19435;DHT22;9853;50.848;4.108;2022-10-16T10:30:57;19.70;99.90
19435;DHT22;9853;50.848;4.108;2022-10-16T10:36:07;20.00;99.90
19435;DHT22;9853;50.848;4.108;2022-10-16T10:43:04;20.30;99.90
19435;DHT22;9853;50.848;4.108;2022-10-16T10:45:12;20.30;99.90
19435;DHT22;9853;50.848;4.108;2022-10-16T10:47:23;20.50;99.90
19435;DHT22;9853;50.848;4.108;2022-10-16T10:54:05;20.80;99.90
19435;DHT22;9853;50.848;4.108;2022-10-16T11:05:34;21.00;99.90
19435;DHT22;9853;50.848;4.108;2022-10-16T11:09:52;21.00;99.90
19435;DHT22;9853;50.848;4.108;2022-10-16T11:12:06;21.20;99.90
19435;DHT22;9853;50.848;4.108;2022-10-16T11:14:34;21.10;99.90
19435;DHT22;9853;50.848;4.108;2022-10-16T11:16:40;21.20;99.90
19435;DHT22;9853;50.848;4.108;2022-10-16T11:18:52;21.20;99.90
19435;DHT22;9853;50.848;4.108;2022-10-16T11:21:04;21.30;99.90
19435;DHT22;9853;50.848;4.108;2022-10-16T11:23:16;21.40;99.90
19435;DHT22;9853;50.848;4.108;2022-10-16T11:25:23;21.50;99.90
19435;DHT22;9853;50.848;4.108;2022-10-16T11:27:36;21.40;99.90
19435;DHT22;9853;50.848;4.108;2022-10-16T11:29:55;21.50;99.90
19435;DHT22;9853;50.848;4.108;2022-10-16T11:32:06;21.60;99.90
19435;DHT22;9853;50.848;4.108;2022-10-16T11:36:33;21.40;99.90
19435;DHT22;9853;50.848;4.108;2022-10-16T11:38:52;21.50;99.90
19435;DHT22;9853;50.848;4.108;2022-10-16T11:40:58;21.00;99.90
19435;DHT22;9853;50.848;4.108;2022-10-16T11:47:34;20.80;99.90
19435;DHT22;9853;50.848;4.108;2022-10-16T11:49:36;20.90;99.90
19435;DHT22;9853;50.848;4.108;2022-10-16T11:53:52;20.40;99.90
19435;DHT22;9853;50.848;4.108;2022-10-16T11:55:54;20.50;99.90
19435;DHT22;9853;50.848;4.108;2022-10-16T11:57:59;20.50;99.90
19435;DHT22;9853;50.848;4.108;2022-10-16T12:00:24;20.50;99.90
19435;DHT22;9853;50.848;4.108;2022-10-16T12:02:48;20.60;99.90
19435;DHT22;9853;50.848;4.108;2022-10-16T12:05:18;20.60;99.90
19435;DHT22;9853;50.848;4.108;2022-10-16T12:07:33;20.40;99.90
19435;DHT22;9853;50.848;4.108;2022-10-16T12:09:37;20.40;99.90
19435;DHT22;9853;50.848;4.108;2022-10-16T12:11:39;20.60;99.90
19435;DHT22;9853;50.848;4.108;2022-10-16T12:13:40;20.80;99.90
19435;DHT22;9853;50.848;4.108;2022-10-16T12:15:42;21.00;99.90
19435;DHT22;9853;50.848;4.108;2022-10-16T12:17:43;21.00;99.90
19435;DHT22;9853;50.848;4.108;2022-10-16T12:19:44;21.00;99.90
19435;DHT22;9853;50.848;4.108;2022-10-16T12:22:00;21.00;99.90
19435;DHT22;9853;50.848;4.108;2022-10-16T12:24:02;21.00;99.90
19435;DHT22;9853;50.848;4.108;2022-10-16T12:26:05;20.90;99.90
19435;DHT22;9853;50.848;4.108;2022-10-16T12:30:22;20.90;99.90
19435;DHT22;9853;50.848;4.108;2022-10-16T12:32:37;20.70;99.90
19435;DHT22;9853;50.848;4.108;2022-10-16T12:34:43;20.80;99.90
19435;DHT22;9853;50.848;4.108;2022-10-16T12:36:46;20.80;99.90
19435;DHT22;9853;50.848;4.108;2022-10-16T12:38:50;20.90;99.90
19435;DHT22;9853;50.848;4.108;2022-10-16T12:41:08;20.60;99.90
19435;DHT22;9853;50.848;4.108;2022-10-16T12:45:33;20.90;99.90
19435;DHT22;9853;50.848;4.108;2022-10-16T12:49:48;20.80;99.90
19435;DHT22;9853;50.848;4.108;2022-10-16T12:51:49;21.00;99.90
19435;DHT22;9853;50.848;4.108;2022-10-16T12:54:04;21.20;99.90
19435;DHT22;9853;50.848;4.108;2022-10-16T13:00:45;21.20;99.90
19435;DHT22;9853;50.848;4.108;2022-10-16T13:12:09;21.30;99.90
19435;DHT22;9853;50.848;4.108;2022-10-16T13:17:20;20.90;99.90
19435;DHT22;9853;50.848;4.108;2022-10-16T13:29:09;21.20;99.90
19435;DHT22;9853;50.848;4.108;2022-10-16T13:31:24;21.40;99.90
19435;DHT22;9853;50.848;4.108;2022-10-16T13:33:37;21.60;99.90
19435;DHT22;9853;50.848;4.108;2022-10-16T13:35:51;21.50;99.90
19435;DHT22;9853;50.848;4.108;2022-10-16T13:38:13;21.50;99.90
19435;DHT22;9853;50.848;4.108;2022-10-16T13:40:23;21.60;99.90
19435;DHT22;9853;50.848;4.108;2022-10-16T13:42:26;21.50;99.90
19435;DHT22;9853;50.848;4.108;2022-10-16T13:44:29;21.50;99.90
19435;DHT22;9853;50.848;4.108;2022-10-16T13:46:30;21.40;99.90
19435;DHT22;9853;50.848;4.108;2022-10-16T13:48:34;21.40;99.90
19435;DHT22;9853;50.848;4.108;2022-10-16T13:50:35;21.30;99.90
19435;DHT22;9853;50.848;4.108;2022-10-16T13:52:36;21.20;99.90
19435;DHT22;9853;50.848;4.108;2022-10-16T13:54:38;21.30;99.90
19435;DHT22;9853;50.848;4.108;2022-10-16T13:56:39;21.10;99.90
19435;DHT22;9853;50.848;4.108;2022-10-16T13:58:41;21.20;99.90
19435;DHT22;9853;50.848;4.108;2022-10-16T14:00:57;21.20;99.90
19435;DHT22;9853;50.848;4.108;2022-10-16T14:03:13;21.20;99.90
19435;DHT22;9853;50.848;4.108;2022-10-16T14:05:15;21.10;99.90
19435;DHT22;9853;50.848;4.108;2022-10-16T14:07:25;21.20;99.90
19435;DHT22;9853;50.848;4.108;2022-10-16T14:09:28;21.20;99.90
19435;DHT22;9853;50.848;4.108;2022-10-16T14:11:30;21.20;99.90
19435;DHT22;9853;50.848;4.108;2022-10-16T14:13:39;21.40;99.90
19435;DHT22;9853;50.848;4.108;2022-10-16T14:15:47;21.30;99.90
19435;DHT22;9853;50.848;4.108;2022-10-16T14:17:51;21.40;99.90
19435;DHT22;9853;50.848;4.108;2022-10-16T14:19:54;21.40;99.90
19435;DHT22;9853;50.848;4.108;2022-10-16T14:21:56;21.50;99.90
19435;DHT22;9853;50.848;4.108;2022-10-16T14:23:57;21.30;99.90
19435;DHT22;9853;50.848;4.108;2022-10-16T14:30:18;21.00;99.90
19435;DHT22;9853;50.848;4.108;2022-10-16T14:32:26;21.00;99.90
19435;DHT22;9853;50.848;4.108;2022-10-16T14:34:34;21.00;99.90
19435;DHT22;9853;50.848;4.108;2022-10-16T14:36:35;21.00;99.90
19435;DHT22;9853;50.848;4.108;2022-10-16T14:40:57;21.00;99.90
19435;DHT22;9853;50.848;4.108;2022-10-16T14:43:00;20.90;99.90
19435;DHT22;9853;50.848;4.108;2022-10-16T14:45:08;20.90;99.90
19435;DHT22;9853;50.848;4.108;2022-10-16T14:47:13;20.90;99.90
19435;DHT22;9853;50.848;4.108;2022-10-16T14:49:20;20.80;99.90
19435;DHT22;9853;50.848;4.108;2022-10-16T14:51:22;20.80;99.90
19435;DHT22;9853;50.848;4.108;2022-10-16T14:53:23;20.70;99.90
19435;DHT22;9853;50.848;4.108;2022-10-16T14:55:24;20.60;99.90
19435;DHT22;9853;50.848;4.108;2022-10-16T14:57:35;20.70;99.90
19435;DHT22;9853;50.848;4.108;2022-10-16T14:59:39;20.80;99.90
19435;DHT22;9853;50.848;4.108;2022-10-16T15:01:44;20.80;99.90